Rose Blanche, Canada
Current Conditions -  °F | °C
As of 10:00 AM on Wednesday 22 Oct 2014 (Local Time) from CWZB Reporting Station
Clear Clear  
Wind Chill: 42°   Ceiling: Unl
Heat Index: 42°   Visibility: 9mi
Dew Point: 38°   Wind: 2mph
Humidity: 85%   Direction: 80°E
Pressure: 30.45"   Gusts: NA
Location:  47.62°N, 58.7°W
Report Text: CWZB 221200Z AUTO 08002KT 9SM NSC 05/03 A3045 RMK SLP311 T00540031 10057 20024 WSI/SWOB
Loading
Personal Weather Stations






























Interactive Weather Map
Tropical Storm Tracking
New forecast layout! Learn more

10-Day Weather Forecast

Advertisements
Track Severe Weather on mobile